sensor_id;sensor_type;location;lat;lon;timestamp;P1;durP1;ratioP1;P2;durP2;ratioP2
53525;SDS011;40551;50.478;19.378;2023-08-21T00:01:59;15.10;;;13.60;;
53525;SDS011;40551;50.478;19.378;2023-08-21T00:04:31;15.20;;;13.70;;
53525;SDS011;40551;50.478;19.378;2023-08-21T00:07:03;14.40;;;13.10;;
53525;SDS011;40551;50.478;19.378;2023-08-21T00:09:37;15.40;;;13.90;;
53525;SDS011;40551;50.478;19.378;2023-08-21T00:12:09;14.30;;;13.10;;
53525;SDS011;40551;50.478;19.378;2023-08-21T00:14:40;14.70;;;13.40;;
53525;SDS011;40551;50.478;19.378;2023-08-21T00:17:12;16.30;;;14.60;;
53525;SDS011;40551;50.478;19.378;2023-08-21T00:19:44;16.20;;;14.60;;
53525;SDS011;40551;50.478;19.378;2023-08-21T00:22:15;15.40;;;14.10;;
53525;SDS011;40551;50.478;19.378;2023-08-21T00:24:47;16.20;;;14.60;;
53525;SDS011;40551;50.478;19.378;2023-08-21T00:27:18;17.70;;;14.50;;
53525;SDS011;40551;50.478;19.378;2023-08-21T00:29:50;16.10;;;14.70;;
53525;SDS011;40551;50.478;19.378;2023-08-21T00:32:23;15.20;;;13.70;;
53525;SDS011;40551;50.478;19.378;2023-08-21T00:34:54;16.40;;;14.70;;
53525;SDS011;40551;50.478;19.378;2023-08-21T00:37:26;15.50;;;14.00;;
53525;SDS011;40551;50.478;19.378;2023-08-21T00:39:58;15.40;;;13.80;;
53525;SDS011;40551;50.478;19.378;2023-08-21T00:42:29;15.00;;;13.50;;
53525;SDS011;40551;50.478;19.378;2023-08-21T00:45:02;15.80;;;13.70;;
53525;SDS011;40551;50.478;19.378;2023-08-21T00:47:37;16.50;;;14.00;;
53525;SDS011;40551;50.478;19.378;2023-08-21T00:50:10;15.60;;;13.60;;
53525;SDS011;40551;50.478;19.378;2023-08-21T00:52:42;14.70;;;13.30;;
53525;SDS011;40551;50.478;19.378;2023-08-21T00:55:15;18.90;;;13.90;;
53525;SDS011;40551;50.478;19.378;2023-08-21T00:57:48;16.10;;;14.20;;
53525;SDS011;40551;50.478;19.378;2023-08-21T01:00:20;15.40;;;13.90;;
53525;SDS011;40551;50.478;19.378;2023-08-21T01:02:52;18.50;;;14.60;;
53525;SDS011;40551;50.478;19.378;2023-08-21T01:05:24;15.50;;;13.90;;
53525;SDS011;40551;50.478;19.378;2023-08-21T01:07:59;16.20;;;14.70;;
53525;SDS011;40551;50.478;19.378;2023-08-21T01:10:45;16.70;;;15.10;;
53525;SDS011;40551;50.478;19.378;2023-08-21T01:13:26;15.30;;;13.90;;
53525;SDS011;40551;50.478;19.378;2023-08-21T01:16:09;16.20;;;14.60;;
53525;SDS011;40551;50.478;19.378;2023-08-21T01:18:44;15.90;;;13.60;;
53525;SDS011;40551;50.478;19.378;2023-08-21T01:21:18;14.70;;;13.40;;
53525;SDS011;40551;50.478;19.378;2023-08-21T01:23:50;15.00;;;13.40;;
53525;SDS011;40551;50.478;19.378;2023-08-21T01:26:22;16.00;;;14.40;;
53525;SDS011;40551;50.478;19.378;2023-08-21T01:28:54;16.10;;;14.20;;
53525;SDS011;40551;50.478;19.378;2023-08-21T01:31:26;15.00;;;13.20;;
53525;SDS011;40551;50.478;19.378;2023-08-21T01:34:04;14.70;;;13.30;;
53525;SDS011;40551;50.478;19.378;2023-08-21T01:36:39;16.30;;;13.80;;
53525;SDS011;40551;50.478;19.378;2023-08-21T01:39:12;15.40;;;14.00;;
53525;SDS011;40551;50.478;19.378;2023-08-21T01:41:45;15.10;;;13.60;;
53525;SDS011;40551;50.478;19.378;2023-08-21T01:44:17;15.10;;;13.60;;
53525;SDS011;40551;50.478;19.378;2023-08-21T01:46:49;15.90;;;14.20;;
53525;SDS011;40551;50.478;19.378;2023-08-21T01:49:21;15.80;;;14.10;;
53525;SDS011;40551;50.478;19.378;2023-08-21T01:51:53;16.10;;;14.40;;
53525;SDS011;40551;50.478;19.378;2023-08-21T01:54:27;16.90;;;15.30;;
53525;SDS011;40551;50.478;19.378;2023-08-21T01:56:59;16.00;;;14.50;;
53525;SDS011;40551;50.478;19.378;2023-08-21T01:59:32;16.10;;;14.70;;
53525;SDS011;40551;50.478;19.378;2023-08-21T02:02:03;15.70;;;14.10;;
53525;SDS011;40551;50.478;19.378;2023-08-21T02:04:35;15.70;;;14.10;;
53525;SDS011;40551;50.478;19.378;2023-08-21T02:07:07;16.90;;;13.90;;
53525;SDS011;40551;50.478;19.378;2023-08-21T02:09:39;15.00;;;13.50;;
53525;SDS011;40551;50.478;19.378;2023-08-21T02:12:11;15.10;;;13.50;;
53525;SDS011;40551;50.478;19.378;2023-08-21T02:14:43;15.00;;;13.50;;
53525;SDS011;40551;50.478;19.378;2023-08-21T02:17:15;15.80;;;14.10;;
53525;SDS011;40551;50.478;19.378;2023-08-21T02:19:47;15.60;;;14.00;;
53525;SDS011;40551;50.478;19.378;2023-08-21T02:22:19;15.40;;;13.80;;
53525;SDS011;40551;50.478;19.378;2023-08-21T02:24:51;14.90;;;13.40;;
53525;SDS011;40551;50.478;19.378;2023-08-21T02:27:23;15.10;;;13.70;;
53525;SDS011;40551;50.478;19.378;2023-08-21T02:29:54;15.30;;;13.50;;
53525;SDS011;40551;50.478;19.378;2023-08-21T02:32:26;17.10;;;14.20;;
53525;SDS011;40551;50.478;19.378;2023-08-21T02:34:58;15.70;;;14.20;;
53525;SDS011;40551;50.478;19.378;2023-08-21T02:37:30;16.80;;;15.20;;
53525;SDS011;40551;50.478;19.378;2023-08-21T02:40:02;17.20;;;15.50;;
53525;SDS011;40551;50.478;19.378;2023-08-21T02:42:37;17.50;;;15.90;;
53525;SDS011;40551;50.478;19.378;2023-08-21T02:45:09;18.00;;;16.20;;
53525;SDS011;40551;50.478;19.378;2023-08-21T02:47:41;18.30;;;16.50;;
53525;SDS011;40551;50.478;19.378;2023-08-21T02:50:14;18.40;;;16.80;;
53525;SDS011;40551;50.478;19.378;2023-08-21T02:52:46;18.20;;;16.40;;
53525;SDS011;40551;50.478;19.378;2023-08-21T02:55:18;18.10;;;15.80;;
53525;SDS011;40551;50.478;19.378;2023-08-21T02:57:50;15.20;;;13.70;;
53525;SDS011;40551;50.478;19.378;2023-08-21T03:00:21;14.90;;;13.60;;
53525;SDS011;40551;50.478;19.378;2023-08-21T03:02:53;15.90;;;14.00;;
53525;SDS011;40551;50.478;19.378;2023-08-21T03:05:27;16.70;;;14.90;;
53525;SDS011;40551;50.478;19.378;2023-08-21T03:07:59;16.70;;;15.20;;
53525;SDS011;40551;50.478;19.378;2023-08-21T03:10:31;17.40;;;15.80;;
53525;SDS011;40551;50.478;19.378;2023-08-21T03:13:03;16.30;;;14.90;;
53525;SDS011;40551;50.478;19.378;2023-08-21T03:15:35;16.80;;;15.40;;
53525;SDS011;40551;50.478;19.378;2023-08-21T03:18:07;17.00;;;15.40;;
53525;SDS011;40551;50.478;19.378;2023-08-21T03:20:39;16.90;;;15.20;;
53525;SDS011;40551;50.478;19.378;2023-08-21T03:23:16;16.70;;;15.10;;
53525;SDS011;40551;50.478;19.378;2023-08-21T03:25:48;16.30;;;14.80;;
53525;SDS011;40551;50.478;19.378;2023-08-21T03:28:21;17.10;;;15.50;;
53525;SDS011;40551;50.478;19.378;2023-08-21T03:30:53;17.50;;;15.90;;
53525;SDS011;40551;50.478;19.378;2023-08-21T03:33:25;17.60;;;16.00;;
53525;SDS011;40551;50.478;19.378;2023-08-21T03:35:57;17.30;;;15.70;;
53525;SDS011;40551;50.478;19.378;2023-08-21T03:38:29;17.60;;;16.00;;
53525;SDS011;40551;50.478;19.378;2023-08-21T03:41:01;17.40;;;15.80;;
53525;SDS011;40551;50.478;19.378;2023-08-21T03:43:34;17.00;;;15.40;;
53525;SDS011;40551;50.478;19.378;2023-08-21T03:46:06;16.30;;;14.80;;
53525;SDS011;40551;50.478;19.378;2023-08-21T03:48:38;15.60;;;14.10;;
53525;SDS011;40551;50.478;19.378;2023-08-21T03:51:11;17.00;;;15.50;;
53525;SDS011;40551;50.478;19.378;2023-08-21T03:53:43;16.60;;;14.90;;
53525;SDS011;40551;50.478;19.378;2023-08-21T03:56:15;16.60;;;15.20;;
53525;SDS011;40551;50.478;19.378;2023-08-21T03:58:47;16.30;;;14.80;;
53525;SDS011;40551;50.478;19.378;2023-08-21T04:01:19;16.10;;;14.70;;
53525;SDS011;40551;50.478;19.378;2023-08-21T04:03:51;15.60;;;14.10;;
53525;SDS011;40551;50.478;19.378;2023-08-21T04:06:23;16.60;;;15.10;;
53525;SDS011;40551;50.478;19.378;2023-08-21T04:08:55;17.40;;;15.60;;
53525;SDS011;40551;50.478;19.378;2023-08-21T04:11:27;17.50;;;15.70;;
53525;SDS011;40551;50.478;19.378;2023-08-21T04:13:58;16.40;;;14.90;;
53525;SDS011;40551;50.478;19.378;2023-08-21T04:16:30;18.10;;;16.20;;
53525;SDS011;40551;50.478;19.378;2023-08-21T04:19:02;16.90;;;15.30;;
53525;SDS011;40551;50.478;19.378;2023-08-21T04:21:35;16.60;;;15.20;;
53525;SDS011;40551;50.478;19.378;2023-08-21T04:24:07;17.50;;;15.80;;
53525;SDS011;40551;50.478;19.378;2023-08-21T04:26:38;16.80;;;15.30;;
53525;SDS011;40551;50.478;19.378;2023-08-21T04:29:10;15.70;;;14.20;;
53525;SDS011;40551;50.478;19.378;2023-08-21T04:31:42;17.60;;;16.00;;
53525;SDS011;40551;50.478;19.378;2023-08-21T04:34:15;16.90;;;15.40;;
53525;SDS011;40551;50.478;19.378;2023-08-21T04:36:47;17.70;;;16.00;;
53525;SDS011;40551;50.478;19.378;2023-08-21T04:39:19;17.30;;;15.60;;
53525;SDS011;40551;50.478;19.378;2023-08-21T04:41:51;17.80;;;15.40;;
53525;SDS011;40551;50.478;19.378;2023-08-21T04:44:23;16.50;;;15.10;;
53525;SDS011;40551;50.478;19.378;2023-08-21T04:46:55;16.30;;;14.90;;
53525;SDS011;40551;50.478;19.378;2023-08-21T04:49:27;16.50;;;14.90;;
53525;SDS011;40551;50.478;19.378;2023-08-21T04:51:59;17.70;;;15.90;;
53525;SDS011;40551;50.478;19.378;2023-08-21T04:54:31;18.00;;;14.20;;
53525;SDS011;40551;50.478;19.378;2023-08-21T04:57:03;16.70;;;15.10;;
53525;SDS011;40551;50.478;19.378;2023-08-21T04:59:34;15.90;;;14.40;;
53525;SDS011;40551;50.478;19.378;2023-08-21T05:02:06;17.00;;;15.30;;
53525;SDS011;40551;50.478;19.378;2023-08-21T05:04:39;18.60;;;16.70;;
53525;SDS011;40551;50.478;19.378;2023-08-21T05:07:11;16.30;;;14.80;;
53525;SDS011;40551;50.478;19.378;2023-08-21T05:09:43;15.50;;;14.10;;
53525;SDS011;40551;50.478;19.378;2023-08-21T05:12:15;16.30;;;14.70;;
53525;SDS011;40551;50.478;19.378;2023-08-21T05:14:47;18.90;;;15.10;;
53525;SDS011;40551;50.478;19.378;2023-08-21T05:17:18;17.80;;;16.10;;
53525;SDS011;40551;50.478;19.378;2023-08-21T05:19:50;18.90;;;17.20;;
53525;SDS011;40551;50.478;19.378;2023-08-21T05:22:22;19.50;;;17.80;;
53525;SDS011;40551;50.478;19.378;2023-08-21T05:24:54;18.30;;;16.50;;
53525;SDS011;40551;50.478;19.378;2023-08-21T05:27:26;18.20;;;16.50;;
53525;SDS011;40551;50.478;19.378;2023-08-21T05:29:58;17.70;;;16.10;;
53525;SDS011;40551;50.478;19.378;2023-08-21T05:32:30;18.60;;;16.80;;
53525;SDS011;40551;50.478;19.378;2023-08-21T05:35:03;17.20;;;15.50;;
53525;SDS011;40551;50.478;19.378;2023-08-21T05:37:37;16.60;;;15.00;;
53525;SDS011;40551;50.478;19.378;2023-08-21T05:40:10;16.70;;;15.00;;
53525;SDS011;40551;50.478;19.378;2023-08-21T05:42:42;17.10;;;15.50;;
53525;SDS011;40551;50.478;19.378;2023-08-21T05:45:14;16.00;;;14.30;;
53525;SDS011;40551;50.478;19.378;2023-08-21T05:47:46;17.40;;;15.70;;
53525;SDS011;40551;50.478;19.378;2023-08-21T05:50:18;17.20;;;15.60;;
53525;SDS011;40551;50.478;19.378;2023-08-21T05:52:51;16.90;;;15.20;;
53525;SDS011;40551;50.478;19.378;2023-08-21T05:55:23;16.40;;;14.80;;
53525;SDS011;40551;50.478;19.378;2023-08-21T05:57:55;17.90;;;16.30;;
53525;SDS011;40551;50.478;19.378;2023-08-21T06:00:27;17.60;;;15.80;;
53525;SDS011;40551;50.478;19.378;2023-08-21T06:03:01;17.70;;;16.00;;
53525;SDS011;40551;50.478;19.378;2023-08-21T06:05:45;16.70;;;15.00;;
53525;SDS011;40551;50.478;19.378;2023-08-21T06:08:18;16.90;;;15.00;;
53525;SDS011;40551;50.478;19.378;2023-08-21T06:10:52;16.00;;;14.50;;
53525;SDS011;40551;50.478;19.378;2023-08-21T06:13:24;16.70;;;15.20;;
53525;SDS011;40551;50.478;19.378;2023-08-21T06:15:56;17.10;;;15.50;;
53525;SDS011;40551;50.478;19.378;2023-08-21T06:18:29;17.20;;;15.70;;
53525;SDS011;40551;50.478;19.378;2023-08-21T06:21:00;17.80;;;16.20;;
53525;SDS011;40551;50.478;19.378;2023-08-21T06:23:32;17.20;;;15.70;;
53525;SDS011;40551;50.478;19.378;2023-08-21T06:26:04;16.60;;;14.80;;
53525;SDS011;40551;50.478;19.378;2023-08-21T06:28:36;24.90;;;20.10;;
53525;SDS011;40551;50.478;19.378;2023-08-21T06:31:08;29.60;;;24.40;;
53525;SDS011;40551;50.478;19.378;2023-08-21T06:33:40;22.90;;;18.50;;
53525;SDS011;40551;50.478;19.378;2023-08-21T06:36:12;26.10;;;22.90;;
53525;SDS011;40551;50.478;19.378;2023-08-21T06:38:44;29.40;;;26.50;;
53525;SDS011;40551;50.478;19.378;2023-08-21T06:41:16;25.30;;;22.70;;
53525;SDS011;40551;50.478;19.378;2023-08-21T06:43:47;29.00;;;25.90;;
53525;SDS011;40551;50.478;19.378;2023-08-21T06:46:20;30.10;;;27.00;;
53525;SDS011;40551;50.478;19.378;2023-08-21T06:48:51;29.10;;;25.80;;
53525;SDS011;40551;50.478;19.378;2023-08-21T06:51:23;31.70;;;28.30;;
53525;SDS011;40551;50.478;19.378;2023-08-21T06:53:55;27.70;;;25.00;;
53525;SDS011;40551;50.478;19.378;2023-08-21T06:56:27;28.20;;;25.30;;
53525;SDS011;40551;50.478;19.378;2023-08-21T06:58:58;26.80;;;24.30;;
53525;SDS011;40551;50.478;19.378;2023-08-21T07:01:31;28.20;;;25.40;;
53525;SDS011;40551;50.478;19.378;2023-08-21T07:04:02;26.20;;;23.50;;
53525;SDS011;40551;50.478;19.378;2023-08-21T07:06:34;25.60;;;22.90;;
53525;SDS011;40551;50.478;19.378;2023-08-21T07:09:06;26.30;;;23.60;;
53525;SDS011;40551;50.478;19.378;2023-08-21T07:11:38;29.30;;;24.70;;
53525;SDS011;40551;50.478;19.378;2023-08-21T07:14:10;25.20;;;22.80;;
53525;SDS011;40551;50.478;19.378;2023-08-21T07:16:42;25.00;;;22.50;;
53525;SDS011;40551;50.478;19.378;2023-08-21T07:19:14;25.50;;;23.10;;
53525;SDS011;40551;50.478;19.378;2023-08-21T07:21:46;24.00;;;21.60;;
53525;SDS011;40551;50.478;19.378;2023-08-21T07:24:18;23.70;;;21.30;;
53525;SDS011;40551;50.478;19.378;2023-08-21T07:26:50;26.40;;;24.00;;
53525;SDS011;40551;50.478;19.378;2023-08-21T07:29:21;24.20;;;21.80;;
53525;SDS011;40551;50.478;19.378;2023-08-21T07:31:53;23.40;;;21.00;;
53525;SDS011;40551;50.478;19.378;2023-08-21T07:34:25;25.90;;;23.40;;
53525;SDS011;40551;50.478;19.378;2023-08-21T07:36:57;26.10;;;23.40;;
53525;SDS011;40551;50.478;19.378;2023-08-21T07:39:29;24.30;;;21.90;;
53525;SDS011;40551;50.478;19.378;2023-08-21T07:42:01;24.60;;;22.20;;
53525;SDS011;40551;50.478;19.378;2023-08-21T07:44:33;25.00;;;22.40;;
53525;SDS011;40551;50.478;19.378;2023-08-21T07:47:05;24.30;;;21.80;;
53525;SDS011;40551;50.478;19.378;2023-08-21T07:49:37;26.70;;;23.70;;
53525;SDS011;40551;50.478;19.378;2023-08-21T07:52:08;24.90;;;21.50;;
53525;SDS011;40551;50.478;19.378;2023-08-21T07:54:40;23.80;;;21.10;;
53525;SDS011;40551;50.478;19.378;2023-08-21T07:57:12;22.50;;;20.10;;
53525;SDS011;40551;50.478;19.378;2023-08-21T07:59:44;22.00;;;19.80;;
53525;SDS011;40551;50.478;19.378;2023-08-21T08:02:16;21.00;;;19.10;;
53525;SDS011;40551;50.478;19.378;2023-08-21T08:04:47;22.00;;;19.80;;
53525;SDS011;40551;50.478;19.378;2023-08-21T08:07:19;20.40;;;18.30;;
53525;SDS011;40551;50.478;19.378;2023-08-21T08:09:51;22.90;;;20.70;;
53525;SDS011;40551;50.478;19.378;2023-08-21T08:12:23;22.90;;;20.70;;
53525;SDS011;40551;50.478;19.378;2023-08-21T08:14:55;23.10;;;20.60;;
53525;SDS011;40551;50.478;19.378;2023-08-21T08:17:26;22.90;;;20.70;;
53525;SDS011;40551;50.478;19.378;2023-08-21T08:19:58;24.10;;;20.80;;
53525;SDS011;40551;50.478;19.378;2023-08-21T08:22:30;23.00;;;20.60;;
53525;SDS011;40551;50.478;19.378;2023-08-21T08:25:02;21.20;;;19.10;;
53525;SDS011;40551;50.478;19.378;2023-08-21T08:27:35;20.60;;;18.70;;
53525;SDS011;40551;50.478;19.378;2023-08-21T08:30:07;22.50;;;20.10;;
53525;SDS011;40551;50.478;19.378;2023-08-21T08:32:41;21.60;;;19.10;;
53525;SDS011;40551;50.478;19.378;2023-08-21T08:35:15;20.80;;;18.90;;
53525;SDS011;40551;50.478;19.378;2023-08-21T08:37:46;19.70;;;17.80;;
53525;SDS011;40551;50.478;19.378;2023-08-21T08:40:18;20.40;;;18.20;;
53525;SDS011;40551;50.478;19.378;2023-08-21T08:42:50;21.40;;;19.00;;
53525;SDS011;40551;50.478;19.378;2023-08-21T08:45:27;26.00;;;19.00;;
53525;SDS011;40551;50.478;19.378;2023-08-21T08:48:00;19.90;;;17.50;;
53525;SDS011;40551;50.478;19.378;2023-08-21T08:50:33;19.40;;;17.40;;
53525;SDS011;40551;50.478;19.378;2023-08-21T08:53:07;18.10;;;16.40;;
53525;SDS011;40551;50.478;19.378;2023-08-21T08:55:46;19.30;;;16.30;;
53525;SDS011;40551;50.478;19.378;2023-08-21T08:58:18;17.90;;;15.90;;
53525;SDS011;40551;50.478;19.378;2023-08-21T09:00:50;17.40;;;15.80;;
53525;SDS011;40551;50.478;19.378;2023-08-21T09:03:22;16.50;;;14.80;;
53525;SDS011;40551;50.478;19.378;2023-08-21T09:05:54;17.10;;;15.20;;
53525;SDS011;40551;50.478;19.378;2023-08-21T09:08:29;18.10;;;15.00;;
53525;SDS011;40551;50.478;19.378;2023-08-21T09:11:02;16.40;;;14.80;;
53525;SDS011;40551;50.478;19.378;2023-08-21T09:13:34;16.40;;;14.70;;
53525;SDS011;40551;50.478;19.378;2023-08-21T09:16:06;16.50;;;14.80;;
53525;SDS011;40551;50.478;19.378;2023-08-21T09:18:38;16.50;;;14.90;;
53525;SDS011;40551;50.478;19.378;2023-08-21T09:21:18;14.90;;;13.10;;
53525;SDS011;40551;50.478;19.378;2023-08-21T09:23:55;15.30;;;13.80;;
53525;SDS011;40551;50.478;19.378;2023-08-21T09:26:29;15.70;;;14.00;;
53525;SDS011;40551;50.478;19.378;2023-08-21T09:29:03;15.60;;;13.90;;
53525;SDS011;40551;50.478;19.378;2023-08-21T09:31:36;16.40;;;13.50;;
53525;SDS011;40551;50.478;19.378;2023-08-21T09:34:09;15.00;;;13.40;;
53525;SDS011;40551;50.478;19.378;2023-08-21T09:36:41;15.40;;;12.70;;
53525;SDS011;40551;50.478;19.378;2023-08-21T09:39:16;17.50;;;12.80;;
53525;SDS011;40551;50.478;19.378;2023-08-21T09:41:56;15.70;;;11.90;;
53525;SDS011;40551;50.478;19.378;2023-08-21T09:46:59;15.60;;;12.40;;
53525;SDS011;40551;50.478;19.378;2023-08-21T09:49:32;14.30;;;12.80;;
53525;SDS011;40551;50.478;19.378;2023-08-21T09:52:06;14.30;;;12.90;;
53525;SDS011;40551;50.478;19.378;2023-08-21T09:54:39;16.90;;;13.80;;
53525;SDS011;40551;50.478;19.378;2023-08-21T09:57:13;13.70;;;12.30;;
53525;SDS011;40551;50.478;19.378;2023-08-21T09:59:45;12.60;;;11.40;;
53525;SDS011;40551;50.478;19.378;2023-08-21T10:02:17;12.90;;;11.70;;
53525;SDS011;40551;50.478;19.378;2023-08-21T10:04:50;14.80;;;13.10;;
53525;SDS011;40551;50.478;19.378;2023-08-21T10:07:24;14.50;;;12.50;;
53525;SDS011;40551;50.478;19.378;2023-08-21T10:09:58;12.60;;;10.80;;
53525;SDS011;40551;50.478;19.378;2023-08-21T10:12:30;12.50;;;11.20;;
53525;SDS011;40551;50.478;19.378;2023-08-21T10:15:02;13.30;;;11.30;;
53525;SDS011;40551;50.478;19.378;2023-08-21T10:17:36;15.20;;;12.00;;
53525;SDS011;40551;50.478;19.378;2023-08-21T10:20:09;14.50;;;11.80;;
53525;SDS011;40551;50.478;19.378;2023-08-21T10:22:45;12.30;;;11.10;;
53525;SDS011;40551;50.478;19.378;2023-08-21T10:25:24;13.10;;;10.40;;
53525;SDS011;40551;50.478;19.378;2023-08-21T10:28:00;16.50;;;10.80;;
53525;SDS011;40551;50.478;19.378;2023-08-21T10:30:34;14.20;;;11.10;;
53525;SDS011;40551;50.478;19.378;2023-08-21T10:33:05;11.50;;;10.40;;
53525;SDS011;40551;50.478;19.378;2023-08-21T10:35:37;12.20;;;11.00;;
53525;SDS011;40551;50.478;19.378;2023-08-21T10:38:11;11.30;;;10.20;;
53525;SDS011;40551;50.478;19.378;2023-08-21T10:43:40;11.40;;;10.20;;
53525;SDS011;40551;50.478;19.378;2023-08-21T10:46:13;11.20;;;9.60;;
53525;SDS011;40551;50.478;19.378;2023-08-21T10:48:45;12.30;;;9.50;;
53525;SDS011;40551;50.478;19.378;2023-08-21T10:51:17;12.60;;;9.80;;
53525;SDS011;40551;50.478;19.378;2023-08-21T10:53:49;13.40;;;10.00;;
53525;SDS011;40551;50.478;19.378;2023-08-21T10:56:20;15.50;;;9.30;;
53525;SDS011;40551;50.478;19.378;2023-08-21T10:58:55;11.00;;;9.30;;
53525;SDS011;40551;50.478;19.378;2023-08-21T11:01:27;13.70;;;9.50;;
53525;SDS011;40551;50.478;19.378;2023-08-21T11:04:14;10.60;;;9.40;;
53525;SDS011;40551;50.478;19.378;2023-08-21T11:06:46;11.70;;;9.00;;
53525;SDS011;40551;50.478;19.378;2023-08-21T11:09:22;12.90;;;9.50;;
53525;SDS011;40551;50.478;19.378;2023-08-21T11:11:54;11.40;;;9.60;;
53525;SDS011;40551;50.478;19.378;2023-08-21T11:14:26;12.10;;;9.40;;
53525;SDS011;40551;50.478;19.378;2023-08-21T11:16:58;13.50;;;9.30;;
53525;SDS011;40551;50.478;19.378;2023-08-21T11:19:31;11.30;;;9.70;;
53525;SDS011;40551;50.478;19.378;2023-08-21T11:22:04;13.60;;;9.60;;
53525;SDS011;40551;50.478;19.378;2023-08-21T11:24:40;12.90;;;9.70;;
53525;SDS011;40551;50.478;19.378;2023-08-21T11:27:13;12.50;;;9.90;;
53525;SDS011;40551;50.478;19.378;2023-08-21T11:29:47;14.50;;;10.00;;
53525;SDS011;40551;50.478;19.378;2023-08-21T11:32:20;15.70;;;10.40;;
53525;SDS011;40551;50.478;19.378;2023-08-21T11:34:53;15.00;;;10.30;;
53525;SDS011;40551;50.478;19.378;2023-08-21T11:37:26;17.90;;;10.10;;
53525;SDS011;40551;50.478;19.378;2023-08-21T11:39:58;17.50;;;10.30;;
53525;SDS011;40551;50.478;19.378;2023-08-21T11:42:36;16.60;;;9.90;;
53525;SDS011;40551;50.478;19.378;2023-08-21T11:45:09;15.70;;;9.50;;
53525;SDS011;40551;50.478;19.378;2023-08-21T11:47:41;14.70;;;9.90;;
53525;SDS011;40551;50.478;19.378;2023-08-21T11:50:13;19.00;;;9.90;;
53525;SDS011;40551;50.478;19.378;2023-08-21T11:52:48;19.70;;;10.20;;
53525;SDS011;40551;50.478;19.378;2023-08-21T11:55:22;15.80;;;9.60;;
53525;SDS011;40551;50.478;19.378;2023-08-21T11:57:54;11.20;;;9.90;;
53525;SDS011;40551;50.478;19.378;2023-08-21T12:00:27;14.90;;;9.70;;
53525;SDS011;40551;50.478;19.378;2023-08-21T12:02:59;13.40;;;11.30;;
53525;SDS011;40551;50.478;19.378;2023-08-21T12:05:36;12.00;;;10.60;;
53525;SDS011;40551;50.478;19.378;2023-08-21T12:08:14;13.80;;;10.00;;
53525;SDS011;40551;50.478;19.378;2023-08-21T12:10:45;13.50;;;10.10;;
53525;SDS011;40551;50.478;19.378;2023-08-21T12:13:22;14.20;;;10.20;;
53525;SDS011;40551;50.478;19.378;2023-08-21T12:15:56;12.40;;;9.60;;
53525;SDS011;40551;50.478;19.378;2023-08-21T12:18:28;11.80;;;9.80;;
53525;SDS011;40551;50.478;19.378;2023-08-21T12:21:00;11.60;;;10.10;;
53525;SDS011;40551;50.478;19.378;2023-08-21T12:23:32;14.40;;;10.70;;
53525;SDS011;40551;50.478;19.378;2023-08-21T12:26:03;11.90;;;9.20;;
53525;SDS011;40551;50.478;19.378;2023-08-21T12:28:35;12.30;;;9.80;;
53525;SDS011;40551;50.478;19.378;2023-08-21T12:31:07;12.40;;;10.10;;
53525;SDS011;40551;50.478;19.378;2023-08-21T12:33:39;12.90;;;9.70;;
53525;SDS011;40551;50.478;19.378;2023-08-21T12:36:10;12.00;;;9.60;;
53525;SDS011;40551;50.478;19.378;2023-08-21T12:38:42;13.10;;;9.70;;
53525;SDS011;40551;50.478;19.378;2023-08-21T12:41:14;12.70;;;9.70;;
53525;SDS011;40551;50.478;19.378;2023-08-21T12:43:45;11.80;;;9.10;;
53525;SDS011;40551;50.478;19.378;2023-08-21T12:46:18;11.10;;;9.20;;
53525;SDS011;40551;50.478;19.378;2023-08-21T12:48:50;13.90;;;9.20;;
53525;SDS011;40551;50.478;19.378;2023-08-21T12:51:21;11.40;;;9.40;;
53525;SDS011;40551;50.478;19.378;2023-08-21T12:53:53;16.20;;;10.50;;
53525;SDS011;40551;50.478;19.378;2023-08-21T12:56:26;10.60;;;9.20;;
53525;SDS011;40551;50.478;19.378;2023-08-21T12:58:58;12.90;;;9.60;;
53525;SDS011;40551;50.478;19.378;2023-08-21T13:01:30;15.10;;;9.40;;
53525;SDS011;40551;50.478;19.378;2023-08-21T13:04:03;11.80;;;9.20;;
53525;SDS011;40551;50.478;19.378;2023-08-21T13:06:35;13.70;;;9.00;;
53525;SDS011;40551;50.478;19.378;2023-08-21T13:09:07;13.50;;;9.70;;
53525;SDS011;40551;50.478;19.378;2023-08-21T13:11:38;11.80;;;8.60;;
53525;SDS011;40551;50.478;19.378;2023-08-21T13:14:10;11.10;;;8.70;;
53525;SDS011;40551;50.478;19.378;2023-08-21T13:16:42;10.60;;;8.60;;
53525;SDS011;40551;50.478;19.378;2023-08-21T13:19:14;13.80;;;8.80;;
53525;SDS011;40551;50.478;19.378;2023-08-21T13:21:46;13.00;;;8.20;;
53525;SDS011;40551;50.478;19.378;2023-08-21T13:24:17;10.60;;;8.90;;
53525;SDS011;40551;50.478;19.378;2023-08-21T13:26:49;9.90;;;8.20;;
53525;SDS011;40551;50.478;19.378;2023-08-21T13:29:20;11.90;;;8.40;;
53525;SDS011;40551;50.478;19.378;2023-08-21T13:31:52;11.10;;;8.40;;
53525;SDS011;40551;50.478;19.378;2023-08-21T13:34:24;10.10;;;8.50;;
53525;SDS011;40551;50.478;19.378;2023-08-21T13:36:56;11.30;;;8.10;;
53525;SDS011;40551;50.478;19.378;2023-08-21T13:39:27;12.30;;;9.20;;
53525;SDS011;40551;50.478;19.378;2023-08-21T13:41:59;11.10;;;8.50;;
53525;SDS011;40551;50.478;19.378;2023-08-21T13:44:31;11.70;;;8.60;;
53525;SDS011;40551;50.478;19.378;2023-08-21T13:47:03;14.10;;;8.50;;
53525;SDS011;40551;50.478;19.378;2023-08-21T13:49:35;15.30;;;8.60;;
53525;SDS011;40551;50.478;19.378;2023-08-21T13:52:07;9.70;;;8.40;;
53525;SDS011;40551;50.478;19.378;2023-08-21T13:54:39;11.50;;;8.10;;
53525;SDS011;40551;50.478;19.378;2023-08-21T13:57:10;11.50;;;9.40;;
53525;SDS011;40551;50.478;19.378;2023-08-21T13:59:42;11.50;;;9.10;;
53525;SDS011;40551;50.478;19.378;2023-08-21T14:02:13;10.90;;;8.80;;
53525;SDS011;40551;50.478;19.378;2023-08-21T14:04:47;11.00;;;9.10;;
53525;SDS011;40551;50.478;19.378;2023-08-21T14:07:19;10.10;;;8.60;;
53525;SDS011;40551;50.478;19.378;2023-08-21T14:09:50;13.00;;;8.50;;
53525;SDS011;40551;50.478;19.378;2023-08-21T14:12:23;12.20;;;8.80;;
53525;SDS011;40551;50.478;19.378;2023-08-21T14:14:55;10.20;;;8.70;;
53525;SDS011;40551;50.478;19.378;2023-08-21T14:17:27;11.30;;;8.50;;
53525;SDS011;40551;50.478;19.378;2023-08-21T14:19:59;9.40;;;8.40;;
53525;SDS011;40551;50.478;19.378;2023-08-21T14:22:31;12.60;;;8.60;;
53525;SDS011;40551;50.478;19.378;2023-08-21T14:25:04;13.00;;;9.00;;
53525;SDS011;40551;50.478;19.378;2023-08-21T14:27:36;11.60;;;8.70;;
53525;SDS011;40551;50.478;19.378;2023-08-21T14:30:10;10.40;;;8.40;;
53525;SDS011;40551;50.478;19.378;2023-08-21T14:32:43;13.20;;;8.50;;
53525;SDS011;40551;50.478;19.378;2023-08-21T14:35:15;13.30;;;9.00;;
53525;SDS011;40551;50.478;19.378;2023-08-21T14:37:47;10.50;;;8.90;;
53525;SDS011;40551;50.478;19.378;2023-08-21T14:40:19;10.40;;;8.60;;
53525;SDS011;40551;50.478;19.378;2023-08-21T14:42:54;11.10;;;8.80;;
53525;SDS011;40551;50.478;19.378;2023-08-21T14:45:26;10.80;;;9.00;;
53525;SDS011;40551;50.478;19.378;2023-08-21T14:47:58;11.60;;;8.90;;